Time;durP1;ratioP1;P1;durP2;ratioP2;P2;SDS_P1;SDS_P2;PMS_P1;PMS_P2;Temp;Humidity;BMP_temperature;BMP_pressure;BME280_temperature;BME280_humidity;BME280_pressure;Samples;Min_cycle;Max_cycle;Signal;HPM_P1;HPM_P2
2022/07/09 00:01:32;;;;;;;9.83;6.47;;;15.30;88.80;;;;;;5066741;28;20473;-49
2022/07/09 00:03:59;;;;;;;10.53;7.13;;;15.20;88.10;;;;;;5060923;28;20855;-49
2022/07/09 00:06:28;;;;;;;12.87;7.50;;;14.90;89.30;;;;;;5053745;28;20669;-49
2022/07/09 00:08:55;;;;;;;7.47;6.63;;;14.90;90.10;;;;;;5052426;28;20483;-50
2022/07/09 00:11:22;;;;;;;10.03;8.27;;;;;;;;;;5062773;28;20702;-49
2022/07/09 00:13:49;;;;;;;14.03;7.27;;;14.60;90.50;;;;;;5063409;28;20489;-50
2022/07/09 00:16:15;;;;;;;9.57;7.80;;;14.50;90.60;;;;;;5060494;28;20473;-50
2022/07/09 00:18:42;;;;;;;10.27;8.10;;;;;;;;;;5066266;28;21007;-50
2022/07/09 00:21:09;;;;;;;8.93;6.70;;;14.70;89.60;;;;;;5063851;28;20477;-49
2022/07/09 00:23:37;;;;;;;11.33;7.50;;;14.70;89.30;;;;;;5064136;28;20509;-49
2022/07/09 00:26:04;;;;;;;9.87;6.80;;;;;;;;;;5062255;28;20478;-50
2022/07/09 00:28:31;;;;;;;8.77;6.90;;;14.80;88.50;;;;;;5052548;28;20549;-50
2022/07/09 00:30:57;;;;;;;11.53;7.40;;;14.70;88.90;;;;;;5066503;28;20482;-50
2022/07/09 00:33:24;;;;;;;9.60;8.47;;;;;;;;;;5046006;28;20475;-50
2022/07/09 00:35:51;;;;;;;9.93;7.10;;;14.70;89.60;;;;;;5059440;28;20991;-49
2022/07/09 00:38:18;;;;;;;10.50;8.83;;;14.70;89.30;;;;;;5062247;28;21418;-49
2022/07/09 00:40:46;;;;;;;9.90;6.77;;;14.70;89.70;;;;;;5065885;28;20478;-50
2022/07/09 00:43:17;;;;;;;12.37;7.17;;;14.70;89.80;;;;;;5064178;28;20477;-49
2022/07/09 00:45:44;;;;;;;11.00;7.47;;;14.70;89.80;;;;;;5053799;28;21352;-50
2022/07/09 00:48:11;;;;;;;12.13;6.97;;;14.70;89.00;;;;;;5060774;28;20486;-49
2022/07/09 00:50:38;;;;;;;9.00;8.10;;;14.70;88.90;;;;;;5061500;28;20478;-50
2022/07/09 00:53:06;;;;;;;9.60;8.07;;;14.60;89.00;;;;;;5066832;28;20492;-49
2022/07/09 00:55:33;;;;;;;7.93;7.23;;;14.40;89.60;;;;;;5065632;28;20896;-49
2022/07/09 00:58:01;;;;;;;9.70;7.30;;;14.40;89.80;;;;;;5063402;28;20492;-50
2022/07/09 01:00:28;;;;;;;11.00;8.97;;;14.30;89.70;;;;;;5056587;28;20485;-49
2022/07/09 01:02:55;;;;;;;8.17;7.33;;;14.20;89.60;;;;;;5065295;28;20490;-50
2022/07/09 01:05:21;;;;;;;11.13;7.73;;;14.20;89.40;;;;;;5063154;28;20481;-49
2022/07/09 01:07:48;;;;;;;8.33;7.30;;;14.10;89.40;;;;;;5060651;28;20473;-50
2022/07/09 01:10:15;;;;;;;13.17;8.53;;;14.10;89.70;;;;;;5063789;28;20474;-50
2022/07/09 01:12:42;;;;;;;10.80;7.77;;;14.10;89.80;;;;;;5064650;28;20466;-49
2022/07/09 01:15:10;;;;;;;10.47;7.93;;;14.10;89.80;;;;;;5057886;28;21301;-49
2022/07/09 01:17:40;;;;;;;14.70;7.40;;;14.10;89.30;;;;;;5038655;28;20485;-50
2022/07/09 01:20:09;;;;;;;9.57;8.20;;;14.10;89.30;;;;;;5062458;28;20481;-50
2022/07/09 01:22:37;;;;;;;10.23;8.43;;;14.10;89.20;;;;;;5063049;28;20520;-49
2022/07/09 01:25:09;;;;;;;12.97;7.50;;;14.10;89.50;;;;;;5066854;28;20516;-49
2022/07/09 01:27:36;;;;;;;13.23;9.37;;;14.00;89.80;;;;;;5058088;28;21284;-49
2022/07/09 01:30:03;;;;;;;8.33;7.37;;;13.90;89.90;;;;;;5055126;28;20478;-50
2022/07/09 01:32:30;;;;;;;9.00;7.50;;;13.90;89.50;;;;;;5065802;28;20511;-50
2022/07/09 01:34:57;;;;;;;7.97;6.87;;;13.80;89.80;;;;;;5065493;28;20477;-49
2022/07/09 01:37:23;;;;;;;13.30;7.70;;;13.80;89.80;;;;;;5058833;28;20759;-48
2022/07/09 01:39:51;;;;;;;8.07;6.00;;;13.80;89.80;;;;;;5066244;28;20488;-48
2022/07/09 01:42:18;;;;;;;10.80;8.50;;;13.70;89.80;;;;;;5062269;28;20608;-49
2022/07/09 01:44:45;;;;;;;7.80;6.67;;;13.70;90.00;;;;;;5065222;28;20489;-49
2022/07/09 01:47:14;;;;;;;10.30;7.70;;;13.70;89.80;;;;;;5026242;28;20480;-48
2022/07/09 01:49:41;;;;;;;10.43;7.70;;;13.70;89.70;;;;;;5053328;28;20505;-48
2022/07/09 01:52:08;;;;;;;7.67;6.37;;;13.70;90.00;;;;;;5054885;28;20477;-48
2022/07/09 01:54:35;;;;;;;9.23;7.10;;;13.50;90.60;;;;;;5052587;28;20486;-49
2022/07/09 01:57:03;;;;;;;13.20;8.60;;;13.40;90.30;;;;;;5052409;28;20485;-49
2022/07/09 01:59:30;;;;;;;10.50;8.50;;;13.50;90.20;;;;;;5056117;28;20489;-49
2022/07/09 02:01:57;;;;;;;7.97;6.17;;;13.50;89.50;;;;;;5059430;28;20482;-49
2022/07/09 02:04:23;;;;;;;10.17;7.40;;;13.50;90.20;;;;;;5050384;28;20480;-49
2022/07/09 02:06:50;;;;;;;7.93;6.40;;;13.50;89.30;;;;;;5040282;28;20486;-49
2022/07/09 02:09:17;;;;;;;11.97;7.00;;;13.60;89.40;;;;;;5043753;28;20576;-49
2022/07/09 02:11:44;;;;;;;7.93;6.70;;;13.60;89.80;;;;;;5018901;28;20973;-49
2022/07/09 02:14:12;;;;;;;8.47;6.57;;;13.60;89.60;;;;;;5049989;28;20479;-49
2022/07/09 02:16:38;;;;;;;6.80;6.00;;;13.50;89.70;;;;;;5046411;28;22858;-49
2022/07/09 02:19:06;;;;;;;8.50;6.23;;;13.50;89.30;;;;;;5048167;28;20505;-48
2022/07/09 02:21:32;;;;;;;7.23;6.53;;;13.40;89.30;;;;;;5046553;28;20731;-48
2022/07/09 02:23:59;;;;;;;8.40;6.57;;;13.40;89.80;;;;;;5057830;28;20479;-49
2022/07/09 02:26:27;;;;;;;8.20;7.27;;;13.40;89.30;;;;;;5054879;28;20870;-49
2022/07/09 02:28:54;;;;;;;7.60;6.70;;;13.40;89.30;;;;;;5057692;28;21119;-49
2022/07/09 02:31:22;;;;;;;6.80;6.13;;;13.40;89.50;;;;;;5054631;28;20505;-50
2022/07/09 02:33:49;;;;;;;9.23;7.40;;;13.40;89.30;;;;;;5054999;28;20896;-50
2022/07/09 02:36:15;;;;;;;9.13;6.00;;;13.40;89.30;;;;;;5051804;28;20996;-50
2022/07/09 02:38:42;;;;;;;8.43;6.50;;;13.40;89.60;;;;;;5065020;28;20466;-50
2022/07/09 02:41:09;;;;;;;8.20;6.97;;;13.40;90.10;;;;;;5056686;28;20482;-50
2022/07/09 02:43:35;;;;;;;9.30;6.90;;;13.40;89.90;;;;;;5055053;28;20964;-50
2022/07/09 02:46:03;;;;;;;7.90;6.43;;;13.30;89.30;;;;;;5044666;28;20536;-50
2022/07/09 02:48:32;;;;;;;9.57;7.07;;;13.30;89.40;;;;;;5056671;28;20486;-50
2022/07/09 02:51:00;;;;;;;10.17;7.60;;;13.20;89.30;;;;;;5045559;28;20652;-50
2022/07/09 02:53:27;;;;;;;9.57;6.47;;;13.10;89.50;;;;;;5056438;28;20479;-50
2022/07/09 02:55:53;;;;;;;7.40;6.17;;;13.10;89.80;;;;;;5055993;28;20488;-51
2022/07/09 02:58:20;;;;;;;10.27;7.20;;;13.00;89.30;;;;;;5053286;28;20493;-50
2022/07/09 03:00:47;;;;;;;8.60;6.27;;;13.00;89.30;;;;;;5057446;28;20480;-50
2022/07/09 03:03:14;;;;;;;6.53;5.87;;;13.00;89.70;;;;;;5057825;28;20493;-50
2022/07/09 03:05:42;;;;;;;10.13;6.90;;;12.90;89.60;;;;;;5049616;28;20490;-50
2022/07/09 03:08:09;;;;;;;7.33;5.93;;;12.90;89.60;;;;;;5040142;28;20512;-50
2022/07/09 03:10:36;;;;;;;7.90;7.00;;;12.80;90.20;;;;;;5053595;28;20535;-50
2022/07/09 03:13:03;;;;;;;8.10;6.10;;;12.70;90.40;;;;;;5059630;28;20468;-50
2022/07/09 03:15:29;;;;;;;10.60;6.70;;;12.70;90.40;;;;;;5055595;28;20487;-50
2022/07/09 03:17:56;;;;;;;6.23;5.63;;;12.70;90.30;;;;;;5061767;28;20983;-50
2022/07/09 03:20:23;;;;;;;8.30;6.77;;;12.70;90.30;;;;;;5065365;28;20560;-50
2022/07/09 03:22:51;;;;;;;7.07;5.70;;;12.70;90.20;;;;;;5059726;28;20489;-49
2022/07/09 03:25:18;;;;;;;8.40;6.50;;;12.60;90.50;;;;;;5053959;28;20539;-50
2022/07/09 03:27:45;;;;;;;11.83;6.50;;;12.50;91.00;;;;;;5062436;28;20496;-49
2022/07/09 03:30:12;;;;;;;9.90;6.87;;;12.30;91.40;;;;;;5074390;28;20575;-49
2022/07/09 03:32:39;;;;;;;12.23;5.80;;;12.30;91.30;;;;;;5066747;28;20486;-49
2022/07/09 03:35:06;;;;;;;8.17;6.77;;;12.30;91.10;;;;;;5063613;28;20560;-50
2022/07/09 03:37:34;;;;;;;8.03;6.47;;;12.30;91.00;;;;;;5063781;28;21295;-50
2022/07/09 03:40:03;;;;;;;8.00;5.43;;;12.30;90.90;;;;;;5050779;28;20493;-50
2022/07/09 03:42:29;;;;;;;9.93;7.00;;;12.30;90.90;;;;;;5052457;28;21025;-50
2022/07/09 03:44:56;;;;;;;11.43;7.10;;;12.40;91.20;;;;;;5070834;28;20488;-50
2022/07/09 03:47:23;;;;;;;10.13;7.53;;;12.40;90.70;;;;;;5053233;28;20481;-49
2022/07/09 03:49:49;;;;;;;13.60;6.77;;;12.20;92.00;;;;;;5064998;28;20485;-49
2022/07/09 03:52:16;;;;;;;9.37;6.03;;;12.10;92.20;;;;;;5062621;28;20488;-49
2022/07/09 03:54:43;;;;;;;9.27;6.50;;;12.20;92.20;;;;;;5056959;28;20480;-49
2022/07/09 03:57:11;;;;;;;12.10;6.53;;;12.20;92.00;;;;;;5063561;28;20484;-50
2022/07/09 03:59:38;;;;;;;9.03;7.30;;;12.30;92.00;;;;;;5062865;28;20495;-50
2022/07/09 04:02:05;;;;;;;6.90;6.13;;;12.30;91.70;;;;;;5024649;28;20485;-50
2022/07/09 04:04:33;;;;;;;8.03;7.23;;;12.30;91.40;;;;;;5059943;28;20842;-50
2022/07/09 04:07:00;;;;;;;17.60;6.33;;;12.30;91.30;;;;;;5055117;28;20587;-50
2022/07/09 04:09:27;;;;;;;8.23;6.93;;;12.40;91.20;;;;;;5055157;28;20491;-50
2022/07/09 04:11:53;;;;;;;9.73;6.00;;;12.40;91.10;;;;;;5062031;28;20555;-51
2022/07/09 04:14:21;;;;;;;9.00;6.00;;;12.40;91.50;;;;;;5061885;28;20489;-50
2022/07/09 04:16:48;;;;;;;8.67;6.30;;;12.40;91.70;;;;;;5059882;28;20490;-50
2022/07/09 04:19:15;;;;;;;7.40;6.53;;;12.40;91.70;;;;;;5063101;28;20493;-51
2022/07/09 04:21:41;;;;;;;6.33;5.73;;;12.30;91.80;;;;;;5063869;28;20493;-50
2022/07/09 04:24:08;;;;;;;8.10;5.93;;;12.30;91.90;;;;;;5059156;28;21058;-51
2022/07/09 04:26:34;;;;;;;7.23;6.27;;;12.20;92.10;;;;;;5058814;28;20485;-53
2022/07/09 04:29:01;;;;;;;8.10;7.00;;;12.20;92.10;;;;;;5059987;28;20481;-50
2022/07/09 04:31:29;;;;;;;11.30;6.50;;;12.20;92.40;;;;;;5060053;28;20478;-50
2022/07/09 04:33:56;;;;;;;7.40;6.00;;;12.30;92.90;;;;;;5056890;28;21006;-51
2022/07/09 04:36:22;;;;;;;9.20;6.40;;;12.30;93.10;;;;;;5056613;28;20492;-50
2022/07/09 04:38:49;;;;;;;8.30;6.07;;;12.40;92.90;;;;;;5057600;28;20920;-51
2022/07/09 04:41:16;;;;;;;12.57;7.50;;;12.60;93.20;;;;;;5044199;28;20564;-51
2022/07/09 04:43:42;;;;;;;11.53;8.07;;;12.70;93.20;;;;;;5049415;28;20935;-51
2022/07/09 04:46:10;;;;;;;9.47;7.67;;;12.70;93.10;;;;;;5057416;28;20487;-51
2022/07/09 04:48:38;;;;;;;12.03;7.30;;;13.00;92.80;;;;;;5057082;28;21066;-52
2022/07/09 04:51:05;;;;;;;10.63;7.87;;;13.10;92.90;;;;;;5064062;28;20989;-51
2022/07/09 04:53:31;;;;;;;11.07;8.60;;;13.10;92.90;;;;;;5057572;28;20819;-50
2022/07/09 04:55:58;;;;;;;12.40;8.30;;;13.40;92.70;;;;;;5059568;28;20471;-51
2022/07/09 04:58:25;;;;;;;14.27;9.00;;;13.40;93.00;;;;;;5056326;28;20487;-50
2022/07/09 05:00:52;;;;;;;9.87;7.70;;;13.50;93.10;;;;;;5057712;28;20481;-50
2022/07/09 05:03:18;;;;;;;11.77;8.07;;;13.60;92.90;;;;;;5057760;28;21236;-50
2022/07/09 05:05:46;;;;;;;9.20;7.20;;;13.70;93.20;;;;;;5055022;28;20480;-50
2022/07/09 05:08:13;;;;;;;10.07;8.33;;;13.80;93.50;;;;;;5054924;28;20776;-50
2022/07/09 05:10:40;;;;;;;12.70;7.80;;;14.00;93.70;;;;;;5060349;28;20512;-51
2022/07/09 05:13:06;;;;;;;9.33;7.73;;;14.10;93.60;;;;;;5058590;28;20489;-51
2022/07/09 05:15:33;;;;;;;10.30;8.80;;;14.20;93.60;;;;;;5056564;28;20880;-51
2022/07/09 05:18:00;;;;;;;9.73;8.47;;;14.20;93.70;;;;;;5061535;28;20534;-51
2022/07/09 05:20:27;;;;;;;17.90;9.87;;;14.30;94.30;;;;;;5057388;28;20986;-50
2022/07/09 05:22:55;;;;;;;11.27;9.10;;;14.40;94.20;;;;;;5055034;28;20883;-51
2022/07/09 05:25:22;;;;;;;11.00;8.47;;;14.40;94.30;;;;;;5064632;28;20485;-50
2022/07/09 05:27:49;;;;;;;11.07;8.10;;;14.50;94.40;;;;;;5054791;28;20521;-51
2022/07/09 05:30:16;;;;;;;11.77;7.90;;;14.60;94.60;;;;;;5058718;28;21030;-51
2022/07/09 05:32:43;;;;;;;16.87;10.37;;;14.60;94.70;;;;;;5061875;28;20508;-51
2022/07/09 05:35:10;;;;;;;12.73;9.20;;;14.80;94.50;;;;;;5061550;28;21137;-51
2022/07/09 05:37:42;;;;;;;11.87;9.13;;;14.90;94.70;;;;;;5055240;28;20485;-50
2022/07/09 05:40:12;;;;;;;14.27;9.30;;;15.10;94.40;;;;;;5028222;28;20497;-50
2022/07/09 05:42:39;;;;;;;11.40;8.93;;;15.20;94.60;;;;;;5018486;28;20884;-50
2022/07/09 05:45:07;;;;;;;14.17;9.70;;;15.20;94.80;;;;;;5061652;28;20557;-51
2022/07/09 05:47:34;;;;;;;10.70;9.43;;;15.30;94.60;;;;;;5056508;28;20490;-50
2022/07/09 05:50:00;;;;;;;14.40;9.53;;;15.30;95.10;;;;;;5057964;28;20486;-51
2022/07/09 05:52:27;;;;;;;13.30;9.50;;;15.50;95.50;;;;;;5049550;28;20478;-50
2022/07/09 05:54:54;;;;;;;18.73;9.40;;;15.60;95.30;;;;;;5054119;28;20897;-51
2022/07/09 05:57:22;;;;;;;13.30;9.50;;;15.60;95.60;;;;;;5053303;28;20501;-50
2022/07/09 05:59:48;;;;;;;13.13;9.27;;;15.80;95.50;;;;;;5058400;28;20714;-50
2022/07/09 06:02:15;;;;;;;10.60;8.23;;;16.00;95.50;;;;;;5058425;28;20489;-50
2022/07/09 06:04:42;;;;;;;13.60;10.00;;;15.90;95.70;;;;;;5056615;28;20846;-50
2022/07/09 06:07:09;;;;;;;11.57;9.63;;;16.10;95.70;;;;;;5057661;28;20544;-49
2022/07/09 06:09:35;;;;;;;12.13;9.20;;;16.30;96.10;;;;;;5057205;28;21182;-50
2022/07/09 06:12:02;;;;;;;12.13;10.80;;;16.40;96.00;;;;;;5062974;28;20485;-50
2022/07/09 06:14:30;;;;;;;11.20;9.87;;;16.60;95.80;;;;;;5049535;28;20987;-50
2022/07/09 06:16:59;;;;;;;14.03;9.47;;;17.00;96.10;;;;;;5056566;28;20483;-49
2022/07/09 06:19:25;;;;;;;11.60;10.33;;;17.10;95.70;;;;;;5058840;28;20487;-50
2022/07/09 06:21:52;;;;;;;15.10;9.07;;;17.50;95.00;;;;;;5061346;28;21085;-50
2022/07/09 06:24:18;;;;;;;12.70;9.93;;;17.80;94.60;;;;;;5061113;28;21371;-50
2022/07/09 06:26:46;;;;;;;10.60;8.53;;;18.20;93.80;;;;;;5045442;28;20478;-50
2022/07/09 06:29:13;;;;;;;11.20;9.07;;;18.30;93.70;;;;;;5049172;28;20521;-50
2022/07/09 06:31:41;;;;;;;12.33;7.63;;;18.60;92.60;;;;;;5059952;28;21325;-49
2022/07/09 06:34:08;;;;;;;10.80;8.80;;;18.80;92.80;;;;;;5030672;28;20847;-49
2022/07/09 06:36:35;;;;;;;10.77;8.60;;;19.00;92.50;;;;;;5058816;28;20489;-49
2022/07/09 06:41:46;;;;;;;10.27;7.53;;;19.30;91.50;;;;;;5047982;28;20478;-50
2022/07/09 06:44:13;;;;;;;14.00;7.40;;;19.50;92.40;;;;;;5059209;28;21035;-53
2022/07/09 06:46:41;;;;;;;7.93;7.07;;;19.70;92.40;;;;;;5050762;28;20982;-49
2022/07/09 06:49:07;;;;;;;8.63;7.73;;;19.80;92.00;;;;;;5059103;28;20470;-49
2022/07/09 06:51:34;;;;;;;11.03;6.80;;;20.00;92.00;;;;;;5055042;28;20958;-49
2022/07/09 06:54:01;;;;;;;8.40;6.23;;;20.30;91.20;;;;;;5058481;28;20486;-49
2022/07/09 06:56:28;;;;;;;7.90;7.10;;;20.40;91.10;;;;;;5050541;28;20522;-50
2022/07/09 06:58:54;;;;;;;7.83;6.13;;;20.90;90.30;;;;;;5058437;28;21280;-50
2022/07/09 07:01:21;;;;;;;9.43;6.10;;;21.00;90.20;;;;;;5056366;28;20483;-50
2022/07/09 07:03:49;;;;;;;10.07;6.73;;;21.40;90.90;;;;;;5056752;28;20570;-50
2022/07/09 07:06:16;;;;;;;9.10;6.10;;;21.70;90.00;;;;;;5051921;28;20626;-50
2022/07/09 07:08:42;;;;;;;9.50;6.50;;;21.70;90.10;;;;;;5053847;28;20490;-50
2022/07/09 07:11:09;;;;;;;11.43;5.50;;;22.20;87.50;;;;;;5055415;28;21285;-51
2022/07/09 07:13:36;;;;;;;7.33;6.00;;;22.40;87.40;;;;;;5041357;28;21019;-50
2022/07/09 07:16:03;;;;;;;17.27;6.50;;;22.80;86.50;;;;;;5051740;28;20490;-50
2022/07/09 07:18:29;;;;;;;7.53;5.60;;;22.90;86.00;;;;;;5057540;28;20498;-50
2022/07/09 07:20:58;;;;;;;8.47;5.60;;;23.20;85.90;;;;;;5060949;28;20475;-50
2022/07/09 07:23:24;;;;;;;7.67;5.70;;;23.50;86.10;;;;;;5056315;28;20487;-49
2022/07/09 07:25:51;;;;;;;6.67;5.97;;;23.60;83.40;;;;;;5045746;28;20835;-50
2022/07/09 07:28:18;;;;;;;7.43;5.60;;;23.90;83.70;;;;;;5060958;28;20936;-51
2022/07/09 07:30:44;;;;;;;5.77;5.07;;;23.90;84.10;;;;;;5053105;28;20921;-50
2022/07/09 07:33:11;;;;;;;5.90;5.40;;;24.00;84.20;;;;;;5046755;28;20466;-51
2022/07/09 07:35:39;;;;;;;7.63;5.47;;;24.40;84.40;;;;;;5049963;28;20482;-50
2022/07/09 07:38:07;;;;;;;6.47;4.80;;;24.50;83.00;;;;;;5062955;28;20489;-50
2022/07/09 07:40:33;;;;;;;6.03;4.73;;;24.80;82.10;;;;;;5055455;28;20487;-50
2022/07/09 07:43:00;;;;;;;5.90;5.40;;;25.10;80.30;;;;;;5057748;28;20512;-50
2022/07/09 07:45:27;;;;;;;4.97;4.30;;;25.10;81.00;;;;;;5063221;28;20479;-50
2022/07/09 07:47:54;;;;;;;5.30;4.80;;;25.40;81.20;;;;;;5054173;28;20489;-50
2022/07/09 07:50:21;;;;;;;5.30;4.20;;;25.80;80.50;;;;;;5059612;28;20482;-50
2022/07/09 07:52:47;;;;;;;3.93;3.60;;;26.00;77.90;;;;;;5058495;28;20478;-52
2022/07/09 07:55:16;;;;;;;4.93;3.90;;;26.20;77.40;;;;;;5064554;28;20470;-50
2022/07/09 07:57:43;;;;;;;4.90;3.73;;;26.30;78.10;;;;;;5041220;28;20525;-50
2022/07/09 08:00:11;;;;;;;4.77;4.30;;;26.40;74.60;;;;;;5058184;28;20529;-50
2022/07/09 08:02:37;;;;;;;4.90;3.30;;;26.50;75.30;;;;;;5060001;28;20479;-50
2022/07/09 08:05:05;;;;;;;4.47;2.00;;;26.60;74.90;;;;;;5061447;28;20486;-50
2022/07/09 08:07:32;;;;;;;3.50;2.50;;;26.60;72.70;;;;;;5062180;28;20577;-50
2022/07/09 08:09:58;;;;;;;4.03;2.50;;;26.60;74.70;;;;;;5056194;28;20474;-50
2022/07/09 08:12:27;;;;;;;8.40;3.00;;;26.60;72.50;;;;;;5066470;28;20487;-50
2022/07/09 08:14:53;;;;;;;3.37;2.20;;;26.70;73.50;;;;;;5060060;28;20479;-50
2022/07/09 08:17:20;;;;;;;4.40;2.50;;;26.70;73.10;;;;;;5058263;28;20529;-50
2022/07/09 08:19:47;;;;;;;5.10;2.93;;;27.00;71.40;;;;;;5061659;28;20478;-50
2022/07/09 08:22:13;;;;;;;4.53;3.00;;;27.00;71.80;;;;;;5047348;28;21431;-50
2022/07/09 08:24:40;;;;;;;6.50;2.53;;;27.20;72.90;;;;;;5055766;28;20473;-50
2022/07/09 08:27:07;;;;;;;3.80;2.10;;;27.20;72.10;;;;;;5032164;28;20486;-50
2022/07/09 08:29:35;;;;;;;4.97;2.77;;;27.20;71.00;;;;;;5046889;28;21088;-51
2022/07/09 08:32:02;;;;;;;5.03;2.80;;;27.30;72.70;;;;;;5053399;28;20570;-50
2022/07/09 08:34:29;;;;;;;3.23;2.30;;;27.60;71.90;;;;;;5059449;28;20471;-51
2022/07/09 08:36:55;;;;;;;2.83;2.37;;;27.60;70.90;;;;;;5052961;28;20483;-50
2022/07/09 08:39:22;;;;;;;3.13;2.83;;;27.70;70.90;;;;;;5062938;28;20473;-50
2022/07/09 08:41:49;;;;;;;9.60;2.83;;;27.90;72.20;;;;;;5061950;28;21115;-50
2022/07/09 08:44:18;;;;;;;3.63;3.20;;;28.00;72.50;;;;;;5045737;28;20479;-50
2022/07/09 08:46:47;;;;;;;3.67;2.47;;;28.00;70.30;;;;;;5053578;28;20481;-50
2022/07/09 08:49:16;;;;;;;9.53;2.90;;;28.20;70.00;;;;;;5064877;28;20482;-50
2022/07/09 08:51:45;;;;;;;2.10;1.90;;;28.20;67.10;;;;;;5060849;28;20505;-50
2022/07/09 08:54:12;;;;;;;3.00;2.43;;;28.30;69.20;;;;;;5063108;28;20483;-51
2022/07/09 08:56:40;;;;;;;4.50;2.90;;;28.00;66.60;;;;;;5055147;28;20488;-51
2022/07/09 08:59:06;;;;;;;3.07;2.77;;;27.90;67.50;;;;;;5061356;28;20523;-50
2022/07/09 09:01:34;;;;;;;1.90;1.70;;;28.00;69.20;;;;;;5058776;28;20482;-50
2022/07/09 09:04:02;;;;;;;3.60;1.80;;;27.90;68.20;;;;;;5059486;28;20917;-51
2022/07/09 09:06:29;;;;;;;5.83;1.80;;;27.80;68.20;;;;;;5054756;28;20483;-51
2022/07/09 09:08:56;;;;;;;2.70;2.10;;;27.80;66.60;;;;;;5062141;28;20481;-51
2022/07/09 09:11:26;;;;;;;4.87;2.30;;;28.00;69.10;;;;;;5059674;28;20478;-51
2022/07/09 09:13:54;;;;;;;5.20;1.90;;;28.20;67.90;;;;;;5064876;28;20441;-51
2022/07/09 09:16:22;;;;;;;4.20;1.80;;;28.50;68.70;;;;;;5053510;28;20501;-51
2022/07/09 09:18:50;;;;;;;2.03;1.80;;;28.70;67.90;;;;;;5063066;28;20477;-51
2022/07/09 09:21:21;;;;;;;4.13;2.17;;;29.00;65.30;;;;;;5049607;28;20491;-51
2022/07/09 09:23:50;;;;;;;2.87;1.67;;;29.40;67.60;;;;;;5041328;28;20493;-50
2022/07/09 09:26:18;;;;;;;2.53;2.00;;;29.30;63.60;;;;;;5046170;28;20594;-51
2022/07/09 09:28:49;;;;;;;2.57;1.80;;;29.40;66.70;;;;;;5059937;28;20482;-51
2022/07/09 09:31:21;;;;;;;5.20;2.50;;;29.70;65.40;;;;;;5057414;28;20468;-51
2022/07/09 09:33:47;;;;;;;2.17;1.60;;;29.80;66.10;;;;;;5060740;28;20486;-51
2022/07/09 09:36:32;;;;;;;2.60;1.90;;;30.00;63.20;;;;;;5055889;28;20540;-51
2022/07/09 09:39:24;;;;;;;2.47;1.90;;;30.00;62.70;;;;;;5031475;28;20558;-50
2022/07/09 09:41:53;;;;;;;2.57;2.10;;;30.30;65.10;;;;;;5043270;28;20471;-50
2022/07/09 09:44:23;;;;;;;2.80;2.00;;;30.50;63.40;;;;;;5060203;28;20479;-51
2022/07/09 09:46:50;;;;;;;6.00;1.60;;;30.50;61.60;;;;;;5055730;28;20499;-51
2022/07/09 09:49:17;;;;;;;3.73;1.90;;;30.40;63.80;;;;;;5061525;28;20494;-50
2022/07/09 09:51:51;;;;;;;4.03;2.63;;;30.30;60.70;;;;;;5058866;28;20494;-51
2022/07/09 09:54:19;;;;;;;3.60;2.10;;;30.40;61.50;;;;;;5058484;28;20509;-50
2022/07/09 09:56:47;;;;;;;2.70;2.10;;;30.30;62.20;;;;;;5058974;28;20500;-51
2022/07/09 09:59:14;;;;;;;5.93;2.57;;;30.00;61.60;;;;;;5056789;28;20796;-50
2022/07/09 10:01:42;;;;;;;4.47;1.90;;;29.90;62.40;;;;;;5058262;28;21189;-51
2022/07/09 10:04:10;;;;;;;4.13;2.50;;;29.90;64.20;;;;;;5061236;28;20915;-50
2022/07/09 10:06:37;;;;;;;2.00;1.80;;;30.10;63.50;;;;;;5062116;28;21045;-49
2022/07/09 10:09:07;;;;;;;4.93;2.30;;;30.20;63.50;;;;;;5060677;28;20526;-50
2022/07/09 10:11:42;;;;;;;2.20;2.00;;;30.30;64.10;;;;;;5049786;28;20502;-50
2022/07/09 10:14:15;;;;;;;4.97;2.07;;;30.30;64.10;;;;;;5035153;28;20799;-51
2022/07/09 10:16:41;;;;;;;2.50;2.13;;;30.10;60.60;;;;;;5055693;28;20475;-50
2022/07/09 10:19:08;;;;;;;2.13;1.90;;;30.10;62.50;;;;;;5059083;28;20482;-50
2022/07/09 10:21:36;;;;;;;6.67;2.87;;;30.30;63.90;;;;;;5058425;28;20510;-50
2022/07/09 10:24:06;;;;;;;5.00;2.60;;;30.20;59.80;;;;;;5059657;28;20501;-54
2022/07/09 10:26:46;;;;;;;2.73;1.77;;;30.10;60.40;;;;;;5058432;28;20466;-50
2022/07/09 10:29:24;;;;;;;4.33;2.10;;;30.00;61.10;;;;;;5051084;28;20454;-50
2022/07/09 10:31:52;;;;;;;4.93;2.77;;;29.80;62.80;;;;;;5062036;28;20470;-50
2022/07/09 10:34:54;;;;;;;4.97;2.43;;;30.10;62.70;;;;;;5058097;28;20483;-50
2022/07/09 10:37:35;;;;;;;3.80;2.40;;;30.20;62.50;;;;;;5052083;28;20452;-50
2022/07/09 10:40:14;;;;;;;2.70;2.40;;;30.40;62.70;;;;;;5030272;28;20482;-50
2022/07/09 10:42:41;;;;;;;2.87;2.40;;;30.50;61.90;;;;;;5047704;28;20805;-50
2022/07/09 10:45:39;;;;;;;3.80;2.40;;;30.00;60.60;;;;;;5064390;28;20453;-50
2022/07/09 10:48:07;;;;;;;6.27;2.57;;;29.50;60.10;;;;;;5032679;28;20475;-52
2022/07/09 10:50:38;;;;;;;3.17;2.17;;;29.40;60.90;;;;;;5057091;28;20528;-51
2022/07/09 10:53:05;;;;;;;6.93;2.50;;;29.30;60.60;;;;;;5027887;28;20474;-51
2022/07/09 10:55:33;;;;;;;7.63;2.57;;;29.30;62.10;;;;;;5056259;28;20486;-49
2022/07/09 10:58:02;;;;;;;2.47;2.00;;;29.50;64.00;;;;;;5054658;28;20478;-49
2022/07/09 11:00:31;;;;;;;3.73;2.50;;;29.80;60.60;;;;;;5047185;28;20484;-50
2022/07/09 11:03:00;;;;;;;2.87;1.60;;;29.80;59.20;;;;;;5054590;28;20546;-50
2022/07/09 11:05:28;;;;;;;3.20;2.10;;;29.70;59.10;;;;;;5057248;28;20482;-50
2022/07/09 11:08:00;;;;;;;7.87;2.63;;;29.60;60.40;;;;;;5051160;28;20482;-50
2022/07/09 11:10:27;;;;;;;4.13;2.50;;;29.50;60.60;;;;;;5053180;28;20482;-49
2022/07/09 11:12:58;;;;;;;3.37;1.87;;;29.40;62.20;;;;;;5058781;28;21002;-50
2022/07/09 11:15:26;;;;;;;2.80;2.30;;;29.30;62.10;;;;;;5061086;28;20714;-49
2022/07/09 11:18:00;;;;;;;2.93;2.57;;;29.30;62.50;;;;;;5058105;28;20567;-49
2022/07/09 11:20:29;;;;;;;3.13;2.40;;;29.40;61.60;;;;;;5046251;28;20478;-49
2022/07/09 11:22:57;;;;;;;2.50;2.07;;;29.60;63.60;;;;;;5063701;28;20478;-52
2022/07/09 11:25:25;;;;;;;3.03;2.30;;;29.80;63.40;;;;;;5054507;28;20536;-50
2022/07/09 11:27:52;;;;;;;2.10;1.80;;;30.00;63.50;;;;;;5056829;28;20453;-49
2022/07/09 11:30:20;;;;;;;2.80;2.50;;;30.30;60.10;;;;;;5058820;28;20475;-50
2022/07/09 11:32:47;;;;;;;6.13;2.20;;;30.30;61.00;;;;;;5060232;28;20449;-49
2022/07/09 11:35:25;;;;;;;2.27;1.97;;;30.70;60.70;;;;;;5065418;28;20471;-49
2022/07/09 11:37:52;;;;;;;2.83;1.80;;;30.70;60.90;;;;;;5043956;28;20581;-49
2022/07/09 11:40:20;;;;;;;9.93;2.40;;;31.00;60.20;;;;;;5063632;28;20475;-49
2022/07/09 11:42:46;;;;;;;2.10;1.50;;;31.30;59.40;;;;;;5057796;28;20453;-50
2022/07/09 11:45:13;;;;;;;2.40;2.10;;;31.30;58.70;;;;;;5055590;28;20478;-50
2022/07/09 11:47:41;;;;;;;2.83;1.93;;;31.40;58.40;;;;;;5058498;28;20523;-50
2022/07/09 11:50:11;;;;;;;3.17;1.97;;;31.00;57.10;;;;;;5056535;28;20478;-50
2022/07/09 11:52:43;;;;;;;3.70;1.70;;;30.70;57.30;;;;;;5033864;28;20558;-49
2022/07/09 11:55:11;;;;;;;3.37;2.03;;;30.60;58.30;;;;;;5047795;28;20478;-50
2022/07/09 11:57:38;;;;;;;2.77;2.47;;;30.10;59.60;;;;;;5028119;28;20477;-49
2022/07/09 12:00:07;;;;;;;3.33;2.00;;;30.00;59.80;;;;;;5061130;28;20442;-49
2022/07/09 12:02:36;;;;;;;3.40;2.20;;;30.00;61.20;;;;;;5063653;28;20470;-49
2022/07/09 12:05:07;;;;;;;2.47;1.93;;;30.10;61.50;;;;;;5061631;28;20635;-49
2022/07/09 12:07:35;;;;;;;2.20;2.00;;;30.20;61.00;;;;;;5059119;28;20486;-50
2022/07/09 12:10:04;;;;;;;5.47;2.33;;;30.30;61.20;;;;;;5062527;28;20833;-49
2022/07/09 12:12:32;;;;;;;4.23;1.87;;;30.50;60.20;;;;;;5052514;28;20585;-49
2022/07/09 12:14:59;;;;;;;3.70;2.00;;;30.70;60.30;;;;;;5058228;28;20479;-49
2022/07/09 12:17:26;;;;;;;7.37;2.30;;;30.80;58.90;;;;;;5031584;28;20507;-49
2022/07/09 12:19:54;;;;;;;2.50;2.00;;;30.80;59.50;;;;;;5056351;28;20454;-49
2022/07/09 12:22:23;;;;;;;5.13;2.97;;;30.60;58.70;;;;;;5052766;28;20511;-49
2022/07/09 12:24:51;;;;;;;6.73;2.00;;;30.50;58.30;;;;;;5047613;28;20484;-49
2022/07/09 12:27:17;;;;;;;2.63;2.00;;;30.20;59.30;;;;;;5057443;28;20465;-49
2022/07/09 12:29:44;;;;;;;2.27;2.00;;;29.90;59.60;;;;;;5058683;28;20898;-49
2022/07/09 12:32:11;;;;;;;2.17;1.97;;;29.90;60.80;;;;;;5061917;28;20947;-53
2022/07/09 12:34:38;;;;;;;3.00;1.87;;;29.90;61.00;;;;;;5059775;28;20489;-52
2022/07/09 12:37:04;;;;;;;4.80;1.90;;;29.60;59.80;;;;;;5055085;28;20441;-52
2022/07/09 12:39:32;;;;;;;3.10;2.10;;;29.90;62.20;;;;;;5059814;28;20494;-52
2022/07/09 12:41:59;;;;;;;4.60;2.03;;;30.10;63.00;;;;;;5062599;28;20493;-53
2022/07/09 12:44:26;;;;;;;3.23;2.00;;;30.30;60.70;;;;;;5061287;28;20453;-53
2022/07/09 12:46:53;;;;;;;2.67;2.10;;;30.20;59.30;;;;;;5052567;28;20976;-52
2022/07/09 12:49:20;;;;;;;3.80;2.40;;;30.10;59.30;;;;;;5054287;28;20447;-54
2022/07/09 12:51:47;;;;;;;6.57;2.03;;;30.10;58.60;;;;;;5053941;28;20483;-52